^^
Datos históricos de la estación: Murcia-Puente Tocinos
 
Diario Informe para Noviembre 16, 2018 Unidades:  Métrico    Inglés   Ambas
Diario Semanal Mensual Anual Configurable
  Actual: Máximo: Mínimo: Media:
Temperatura: 15.4 °C 17.1 °C 15.4 °C 15.9 °C
Punto de rocio: 14.8 °C 15.8 °C 13.7 °C 14.7 °C
Humedad: 96% 96% 87% 93%
Velocidad viento: 5.0km/h 17.2km/h 0.0km/h 6.8km/h
Racha viento: 11.1km/h 28.6km/h - -
VientoSSW - - SSW
Presión: 1016.5 hPa 1016.9 hPa 1016.3 hPa -
Precipitación: 40.4 mm      
Historical Graphs
 
 
Tabla de datos para Noviembre 16, 2018
Hora Temperatura Punto de rocio Presión Viento Velocidad viento Racha viento Humedad Intensidad lluvia(por hora) Nubes
00:04 17.1 °C 15.4 °C 1016.8 hPa West 3.9 km/h   90% 1.3 mm -RA
00:09 17.1 °C 15.4 °C 1016.8 hPa Calm   5.6 km/h 90% 2.5 mm -RA
00:14 17.1 °C 15.4 °C 1016.8 hPa Calm   7.4 km/h 90% 4.3 mm -RA
00:19 17.0 °C 15.5 °C 1016.8 hPa West 4.7 km/h 5.6 km/h 91% 4.1 mm -RA
00:24 16.9 °C 15.6 °C 1016.8 hPa West 4.7 km/h 3.2 km/h 92% 5.3 mm -RA
00:29 16.9 °C 15.6 °C 1016.8 hPa West 2.9 km/h 3.7 km/h 92% 7.1 mm -RA
00:34 16.9 °C 15.8 °C 1016.9 hPa SW 2.9 km/h 5.0 km/h 93% 7.9 mm -RA
00:39 16.9 °C 15.8 °C 1016.9 hPa East 2.3 km/h 9.3 km/h 93% 9.1 mm -RA
00:44 16.8 °C 15.7 °C 1016.9 hPa ENE 2.3 km/h 9.3 km/h 93% 10.4 mm -RA
00:49 16.7 °C 15.6 °C 1016.9 hPa NE 6.4 km/h 18.3 km/h 93% 11.4 mm -RA
00:54 15.4 °C 13.8 °C 1016.9 hPa NE 6.4 km/h 28.6 km/h 90% 13.2 mm -RA
00:59 15.5 °C 13.9 °C 1016.9 hPa NE 13.7 km/h 24.1 km/h 90% 14.5 mm -RA
01:04 15.7 °C 13.9 °C 1016.7 hPa NE 13.7 km/h 22.2 km/h 89% 14.5 mm -RA
01:09 15.8 °C 14.0 °C 1016.7 hPa West 17.2 km/h 7.4 km/h 89% 14.5 mm -RA
01:14 15.8 °C 13.8 °C 1016.7 hPa WSW 17.2 km/h 5.6 km/h 88% 12.7 mm -RA
01:19 15.8 °C 13.7 °C 1016.4 hPa NW 3.9 km/h 7.4 km/h 87% 12.2 mm BKN
01:24 15.8 °C 14.0 °C 1016.4 hPa NNW 3.9 km/h 7.6 km/h 89% 10.9 mm BKN
01:29 15.8 °C 14.0 °C 1016.4 hPa NNE 5.0 km/h 16.7 km/h 89% 9.1 mm BKN
01:34 15.9 °C 14.1 °C 1016.7 hPa ESE 5.0 km/h 16.1 km/h 89% 8.6 mm BKN
01:39 15.9 °C 14.3 °C 1016.7 hPa ENE 8.7 km/h 11.9 km/h 90% 7.6 mm RA
01:44 15.8 °C 14.2 °C 1016.7 hPa ENE 8.7 km/h 15.6 km/h 90% 6.9 mm RA
01:49 15.7 °C 14.1 °C 1016.7 hPa North 9.5 km/h 13.0 km/h 90% 6.6 mm RA
01:54 15.7 °C 14.2 °C 1016.7 hPa NNW 9.5 km/h 11.1 km/h 91% 7.9 mm RA
01:59 15.6 °C 14.1 °C 1016.7 hPa North 8.4 km/h 14.8 km/h 91% 9.4 mm RA
02:04 15.6 °C 14.3 °C 1016.9 hPa ENE 8.4 km/h 11.1 km/h 92% 9.1 mm RA
02:09 15.4 °C 14.1 °C 1016.9 hPa WSW 8.4 km/h 20.1 km/h 92% 16.3 mm RA
02:14 15.9 °C 14.8 °C 1016.9 hPa NE 8.4 km/h 25.9 km/h 93% 19.0 mm RA
02:19 16.2 °C 15.1 °C 1016.3 hPa NE 11.9 km/h 5.6 km/h 93% 19.3 mm RA
02:24 15.8 °C 14.3 °C 1016.3 hPa SSW 11.9 km/h 16.7 km/h 91% 19.3 mm RA
02:29 15.6 °C 14.3 °C 1016.3 hPa WSW 7.6 km/h 11.1 km/h 92% 19.6 mm RA
02:34 15.6 °C 14.4 °C 1016.3 hPa West 7.6 km/h 13.0 km/h 93% 22.6 mm RA
02:39 15.4 °C 14.3 °C 1016.3 hPa WSW 8.7 km/h 22.2 km/h 93% 23.1 mm RA
02:44 15.5 °C 14.6 °C 1016.3 hPa WNW 8.7 km/h 20.4 km/h 94% 23.1 mm RA
02:49 15.7 °C 14.7 °C 1016.3 hPa SE 11.9 km/h 15.6 km/h 94% 22.1 mm RA
02:54 15.7 °C 14.7 °C 1016.3 hPa ESE 11.9 km/h 9.3 km/h 94% 19.3 mm SCT
02:59 15.8 °C 14.8 °C 1016.3 hPa ESE 7.6 km/h 5.6 km/h 94% 16.3 mm SCT
03:04 15.8 °C 14.8 °C 1016.5 hPa ESE 7.6 km/h 4.7 km/h 94% 16.0 mm SCT
03:09 15.8 °C 14.8 °C 1016.5 hPa SSW 2.9 km/h 11.1 km/h 94% 7.6 mm SCT
03:14 15.8 °C 14.8 °C 1016.5 hPa SW 2.9 km/h 6.9 km/h 94% 4.8 mm SCT
03:19 15.8 °C 14.8 °C 1016.5 hPa WSW 5.8 km/h 7.4 km/h 94% 4.6 mm BKN
03:24 15.8 °C 14.8 °C 1016.5 hPa SW 5.8 km/h 7.4 km/h 94% 4.6 mm BKN
03:29 15.8 °C 14.8 °C 1016.5 hPa SW 3.9 km/h 8.4 km/h 94% 4.3 mm BKN
03:34 15.8 °C 14.8 °C 1016.6 hPa SW 3.9 km/h 9.3 km/h 94% 1.3 mm BKN
03:39 15.8 °C 15.0 °C 1016.6 hPa SW 5.0 km/h 9.3 km/h 95% 0.3 mm BKN
03:44 15.8 °C 15.0 °C 1016.6 hPa SSW 5.0 km/h 7.4 km/h 95% 0.0 mm BKN
03:49 15.8 °C 15.0 °C 1016.5 hPa SSE 6.4 km/h 7.4 km/h 95% 0.0 mm BKN
03:54 15.8 °C 15.0 °C 1016.5 hPa SW 6.4 km/h 11.1 km/h 95% 0.0 mm BKN
03:59 15.8 °C 15.0 °C 1016.5 hPa SSW 6.4 km/h 9.3 km/h 95% 0.0 mm BKN
04:04 15.7 °C 14.9 °C 1016.6 hPa SSW 6.4 km/h 7.4 km/h 95% 0.0 mm BKN
04:09 15.7 °C 14.9 °C 1016.6 hPa SSW 5.8 km/h 9.3 km/h 95% 0.0 mm BKN
04:14 15.7 °C 14.9 °C 1016.6 hPa South 5.8 km/h 7.4 km/h 95% 0.0 mm BKN
04:19 15.7 °C 14.9 °C 1016.5 hPa SSW 5.8 km/h 10.0 km/h 95% 0.0 mm -RA
04:24 15.6 °C 14.8 °C 1016.5 hPa SSW 5.8 km/h 7.6 km/h 95% 0.0 mm -RA
04:29 15.6 °C 14.8 °C 1016.5 hPa SSW 6.4 km/h 9.3 km/h 95% 0.0 mm -RA
04:34 15.6 °C 14.9 °C 1016.5 hPa South 6.4 km/h 7.4 km/h 96% 0.0 mm -RA
04:39 15.5 °C 14.9 °C 1016.5 hPa SSW 6.9 km/h 11.1 km/h 96% 0.0 mm -RA
04:44 15.5 °C 14.9 °C 1016.5 hPa SW 6.9 km/h 9.3 km/h 96% 0.0 mm -RA
04:49 15.5 °C 14.9 °C 1016.5 hPa SW 6.9 km/h 5.6 km/h 96% 0.0 mm -RA
04:54 15.4 °C 14.8 °C 1016.5 hPa SW 6.9 km/h 6.9 km/h 96% 0.0 mm -RA
04:59 15.4 °C 14.8 °C 1016.5 hPa SSW 5.0 km/h 11.1 km/h 96% 0.0 mm -RA
Murcia-Puente Tocinos, España
Compliments of Weather Underground - 2 mb

La estación de MeteoMurcia.com, publica sus datos en los siguientes proyectos:

Meteoclimatic www.awekas.at

W3Counter
Web Analytics